Time;durP1;ratioP1;P1;durP2;ratioP2;P2;SDS_P1;SDS_P2;PMS_P1;PMS_P2;Temp;Humidity;BMP_temperature;BMP_pressure;BME280_temperature;BME280_humidity;BME280_pressure;Samples;Min_cycle;Max_cycle;Signal;HPM_P1;HPM_P2
2023/02/08 00:02:00;;;;;;;1.87;1.77;;;0.00;98.20;;;;;;5083620;28;20623;-71
2023/02/08 00:04:28;;;;;;;1.90;1.80;;;0.00;98.20;;;;;;5092825;28;20540;-71
2023/02/08 00:06:55;;;;;;;1.80;1.70;;;0.00;98.20;;;;;;5090928;28;21014;-71
2023/02/08 00:09:22;;;;;;;1.90;1.80;;;0.10;98.20;;;;;;5102996;28;20456;-71
2023/02/08 00:11:49;;;;;;;1.70;1.60;;;0.10;98.20;;;;;;5091713;28;20541;-70
2023/02/08 00:14:16;;;;;;;1.80;1.70;;;0.10;98.20;;;;;;5102484;28;20488;-72
2023/02/08 00:16:43;;;;;;;1.80;1.70;;;0.20;98.20;;;;;;5086338;28;20567;-72
2023/02/08 00:19:10;;;;;;;1.70;1.60;;;0.20;98.20;;;;;;5091235;28;20759;-73
2023/02/08 00:21:39;;;;;;;1.70;1.60;;;0.30;98.20;;;;;;5083211;28;20486;-70
2023/02/08 00:24:06;;;;;;;1.80;1.70;;;0.30;98.20;;;;;;5097494;28;20464;-72
2023/02/08 00:26:33;;;;;;;2.87;2.67;;;0.30;98.20;;;;;;5076670;28;20475;-71
2023/02/08 00:29:00;;;;;;;1.70;1.60;;;0.20;98.20;;;;;;5099470;28;20459;-72
2023/02/08 00:31:27;;;;;;;1.70;1.60;;;0.30;98.20;;;;;;5084663;28;20503;-71
2023/02/08 00:33:54;;;;;;;1.70;1.60;;;0.20;98.20;;;;;;5095588;28;21015;-71
2023/02/08 00:36:21;;;;;;;1.70;1.60;;;0.20;98.20;;;;;;5088017;28;20567;-72
2023/02/08 00:38:49;;;;;;;1.90;1.80;;;0.20;98.20;;;;;;5100668;28;20463;-73
2023/02/08 00:41:17;;;;;;;1.80;1.70;;;0.10;98.20;;;;;;5088103;28;20508;-71
2023/02/08 00:43:43;;;;;;;1.80;1.70;;;0.10;98.20;;;;;;5106166;28;20475;-72
2023/02/08 00:46:10;;;;;;;1.70;1.60;;;0.00;98.20;;;;;;5087394;28;20562;-71
2023/02/08 00:48:37;;;;;;;1.80;1.70;;;0.00;98.20;;;;;;5101626;28;20460;-71
2023/02/08 00:51:07;;;;;;;1.80;1.70;;;-0.10;98.20;;;;;;5087223;28;20583;-71
2023/02/08 00:53:36;;;;;;;1.70;1.60;;;-0.10;98.20;;;;;;5098129;28;20499;-72
2023/02/08 00:56:06;;;;;;;1.70;1.60;;;-0.20;98.20;;;;;;5078217;28;20768;-71
2023/02/08 00:58:33;;;;;;;1.73;1.63;;;-0.20;98.20;;;;;;5096379;28;20465;-72
2023/02/08 01:01:01;;;;;;;1.77;1.67;;;-0.20;98.20;;;;;;5085545;28;20940;-72
2023/02/08 01:03:28;;;;;;;1.70;1.60;;;-0.30;98.20;;;;;;5090635;28;20883;-72
2023/02/08 01:06:00;;;;;;;4.17;3.93;;;-0.30;98.20;;;;;;5084454;28;20510;-72
2023/02/08 01:08:27;;;;;;;1.83;1.73;;;-0.20;98.20;;;;;;5089232;28;20506;-72
2023/02/08 01:11:01;;;;;;;1.70;1.60;;;-0.30;98.20;;;;;;5083000;28;20866;-72
2023/02/08 01:13:29;;;;;;;1.70;1.60;;;-0.20;98.20;;;;;;5101195;28;20860;-72
2023/02/08 01:16:04;;;;;;;1.80;1.70;;;-0.20;98.20;;;;;;5088810;28;20467;-72
2023/02/08 01:18:31;;;;;;;2.10;2.00;;;-0.30;98.20;;;;;;5092928;28;20456;-70
2023/02/08 01:21:04;;;;;;;1.73;1.63;;;-0.20;98.20;;;;;;5087306;28;20456;-72
2023/02/08 01:23:31;;;;;;;1.80;1.70;;;-0.20;98.20;;;;;;5103847;28;20484;-72
2023/02/08 01:25:58;;;;;;;1.77;1.67;;;-0.20;98.20;;;;;;5082844;28;20464;-71
2023/02/08 01:28:25;;;;;;;1.70;1.60;;;-0.20;98.20;;;;;;5087400;28;20464;-72
2023/02/08 01:30:54;;;;;;;1.70;1.60;;;-0.20;98.20;;;;;;5078596;28;20512;-71
2023/02/08 01:33:21;;;;;;;1.70;1.60;;;-0.20;98.20;;;;;;5100569;28;20503;-71
2023/02/08 01:35:51;;;;;;;1.70;1.60;;;-0.20;98.20;;;;;;5090072;28;20462;-71
2023/02/08 01:38:18;;;;;;;2.40;2.20;;;-0.20;98.20;;;;;;5094443;28;20465;-71
2023/02/08 01:40:45;;;;;;;1.70;1.60;;;-0.20;98.20;;;;;;5084989;28;20457;-72
2023/02/08 01:43:21;;;;;;;1.83;1.73;;;-0.20;98.20;;;;;;5087242;28;20477;-71
2023/02/08 01:45:47;;;;;;;2.20;2.00;;;-0.20;98.20;;;;;;5080883;28;20554;-73
2023/02/08 01:48:20;;;;;;;2.00;1.90;;;-0.20;98.20;;;;;;5102960;28;20465;-72
2023/02/08 01:50:53;;;;;;;1.80;1.70;;;-0.20;98.20;;;;;;5085143;28;20833;-72
2023/02/08 01:53:21;;;;;;;1.70;1.60;;;-0.20;98.20;;;;;;5095921;28;20558;-72
2023/02/08 01:55:52;;;;;;;2.10;2.00;;;-0.20;98.20;;;;;;5086736;28;20967;-73
2023/02/08 01:58:20;;;;;;;1.70;1.60;;;-0.20;98.20;;;;;;5098884;28;20464;-71
2023/02/08 02:00:48;;;;;;;1.70;1.60;;;-0.20;98.20;;;;;;5091966;28;20651;-72
2023/02/08 02:03:18;;;;;;;1.80;1.70;;;-0.20;98.20;;;;;;5050791;28;20953;-73
2023/02/08 02:05:48;;;;;;;1.70;1.60;;;-0.20;98.20;;;;;;5088600;28;20522;-71
2023/02/08 02:08:15;;;;;;;1.80;1.70;;;-0.20;98.20;;;;;;5060992;28;20555;-70
2023/02/08 02:10:43;;;;;;;1.83;1.73;;;-0.20;98.20;;;;;;5087823;28;20576;-72
2023/02/08 02:13:14;;;;;;;1.80;1.70;;;-0.20;98.20;;;;;;5078746;28;20476;-72
2023/02/08 02:15:43;;;;;;;1.80;1.70;;;-0.30;98.20;;;;;;5087301;28;20517;-71
2023/02/08 02:18:11;;;;;;;2.03;1.93;;;-0.30;98.20;;;;;;5075165;28;20486;-71
2023/02/08 02:20:57;;;;;;;1.80;1.70;;;-0.30;98.20;;;;;;5092560;28;20491;-72
2023/02/08 02:23:50;;;;;;;1.80;1.70;;;-0.20;98.20;;;;;;5091587;28;20559;-73
2023/02/08 02:26:59;;;;;;;1.70;1.60;;;-0.20;98.20;;;;;;5072011;28;20568;-73
2023/02/08 02:30:00;;;;;;;1.70;1.60;;;-0.20;98.20;;;;;;5077181;28;20461;-72
2023/02/08 02:32:50;;;;;;;1.70;1.60;;;-0.30;98.20;;;;;;5072724;28;20480;-71
2023/02/08 02:35:27;;;;;;;1.90;1.80;;;-0.30;98.20;;;;;;5077655;28;20549;-71
2023/02/08 02:38:03;;;;;;;1.80;1.70;;;-0.40;98.20;;;;;;5066173;28;20495;-71
2023/02/08 02:40:37;;;;;;;1.70;1.60;;;-0.40;98.20;;;;;;5085450;28;20460;-72
2023/02/08 02:46:24;;;;;;;2.57;2.37;;;-0.60;98.20;;;;;;5011169;28;20693;-72
2023/02/08 02:48:58;;;;;;;1.80;1.70;;;-0.70;98.20;;;;;;5016642;28;21019;-72
2023/02/08 02:51:28;;;;;;;1.90;1.80;;;-0.80;98.20;;;;;;5041701;28;20578;-72
2023/02/08 02:54:00;;;;;;;1.70;1.60;;;-0.90;98.20;;;;;;5081421;28;20512;-72
2023/02/08 02:56:32;;;;;;;2.00;1.90;;;-0.90;98.20;;;;;;5067329;28;20496;-71
2023/02/08 02:59:03;;;;;;;2.00;1.90;;;-1.00;98.20;;;;;;5081223;28;21115;-72
2023/02/08 03:01:31;;;;;;;1.83;1.73;;;-1.10;98.20;;;;;;5070444;28;20474;-73
2023/02/08 03:03:59;;;;;;;1.80;1.70;;;-1.10;98.20;;;;;;5094904;28;20943;-70
2023/02/08 03:06:37;;;;;;;1.90;1.80;;;-1.20;98.20;;;;;;5091475;27;20484;-74
2023/02/08 03:09:26;;;;;;;1.80;1.70;;;-1.20;98.20;;;;;;5111318;27;20574;-74
2023/02/08 03:12:02;;;;;;;1.80;1.70;;;-1.30;98.20;;;;;;5096744;27;20494;-71
2023/02/08 03:14:37;;;;;;;1.90;1.80;;;-1.30;98.20;;;;;;5113233;27;20943;-72
2023/02/08 03:17:21;;;;;;;1.87;1.77;;;-1.30;98.20;;;;;;5099459;27;20561;-72
2023/02/08 03:20:01;;;;;;;1.80;1.70;;;-1.30;98.20;;;;;;5111415;27;20491;-74
2023/02/08 03:22:37;;;;;;;3.40;3.20;;;-1.40;98.20;;;;;;5102122;27;20502;-73
2023/02/08 03:25:12;;;;;;;1.90;1.80;;;-1.40;98.20;;;;;;5110334;27;20658;-71
2023/02/08 03:27:44;;;;;;;2.00;1.90;;;-1.40;98.20;;;;;;5111907;27;20474;-72
2023/02/08 03:30:16;;;;;;;1.80;1.70;;;-1.50;98.20;;;;;;5109385;28;20472;-71
2023/02/08 03:32:46;;;;;;;1.80;1.70;;;-1.50;98.20;;;;;;5104958;27;20537;-71
2023/02/08 03:35:19;;;;;;;1.80;1.70;;;-1.50;98.20;;;;;;5109444;28;20543;-71
2023/02/08 03:37:50;;;;;;;1.80;1.70;;;-1.50;98.20;;;;;;5106286;27;20555;-73
2023/02/08 03:40:22;;;;;;;1.80;1.70;;;-1.50;98.20;;;;;;5103595;28;21001;-74
2023/02/08 03:42:52;;;;;;;1.80;1.70;;;-1.50;98.20;;;;;;5108774;27;21077;-72
2023/02/08 03:45:25;;;;;;;1.87;1.77;;;-1.60;98.20;;;;;;5109785;28;20466;-72
2023/02/08 03:47:56;;;;;;;2.10;2.00;;;-1.60;98.20;;;;;;5076956;28;20572;-72
2023/02/08 03:50:27;;;;;;;1.90;1.80;;;-1.60;98.20;;;;;;5109463;28;20459;-75
2023/02/08 03:52:55;;;;;;;1.90;1.80;;;-1.60;98.20;;;;;;5077231;28;20988;-73
2023/02/08 03:55:25;;;;;;;1.90;1.80;;;-1.70;98.20;;;;;;5103214;28;20467;-72
2023/02/08 03:57:56;;;;;;;1.83;1.73;;;-1.70;98.20;;;;;;5104835;28;20479;-74
2023/02/08 04:00:24;;;;;;;1.90;1.80;;;-1.70;98.20;;;;;;5109431;28;20460;-75
2023/02/08 04:02:56;;;;;;;1.90;1.80;;;-1.70;98.20;;;;;;5076487;28;20575;-72
2023/02/08 04:05:25;;;;;;;1.80;1.70;;;-1.60;98.20;;;;;;5088529;28;20477;-75
2023/02/08 04:07:52;;;;;;;1.90;1.80;;;-1.50;98.20;;;;;;5068371;28;20524;-73
2023/02/08 04:10:20;;;;;;;1.90;1.80;;;-1.30;98.20;;;;;;5077902;28;20530;-72
2023/02/08 04:12:49;;;;;;;1.87;1.77;;;-1.20;98.20;;;;;;5070965;28;20499;-73
2023/02/08 04:15:16;;;;;;;1.90;1.80;;;-1.10;98.20;;;;;;5087908;28;20749;-72
2023/02/08 04:17:44;;;;;;;1.90;1.80;;;-1.10;98.20;;;;;;5082521;28;20552;-73
2023/02/08 04:20:12;;;;;;;1.90;1.80;;;-1.00;98.20;;;;;;5090271;28;20461;-73
2023/02/08 04:22:40;;;;;;;1.80;1.70;;;-0.90;98.20;;;;;;5086742;28;20515;-72
2023/02/08 04:25:08;;;;;;;1.70;1.60;;;-0.90;98.20;;;;;;5088403;28;20594;-73
2023/02/08 04:27:35;;;;;;;1.90;1.80;;;-0.80;98.20;;;;;;5084389;28;20494;-72
2023/02/08 04:30:02;;;;;;;1.80;1.70;;;-0.80;98.20;;;;;;5083920;28;21016;-72
2023/02/08 04:32:29;;;;;;;1.80;1.70;;;-0.80;98.20;;;;;;5075007;28;20515;-72
2023/02/08 04:34:56;;;;;;;1.90;1.80;;;-0.80;98.20;;;;;;5086328;28;20468;-72
2023/02/08 04:37:23;;;;;;;1.80;1.70;;;-0.80;98.20;;;;;;5071498;28;20729;-74
2023/02/08 04:39:51;;;;;;;1.90;1.80;;;-0.80;98.20;;;;;;5084382;28;20465;-73
2023/02/08 04:42:18;;;;;;;1.90;1.80;;;-0.70;98.20;;;;;;5084117;28;21003;-73
2023/02/08 04:44:45;;;;;;;1.80;1.70;;;-0.80;98.20;;;;;;5088421;28;20460;-72
2023/02/08 04:47:12;;;;;;;1.80;1.70;;;-0.80;98.20;;;;;;5079320;28;20484;-72
2023/02/08 04:49:39;;;;;;;1.90;1.80;;;-0.80;98.20;;;;;;5088203;28;20560;-75
2023/02/08 04:52:06;;;;;;;1.90;1.80;;;-0.90;98.20;;;;;;5062749;28;20484;-73
2023/02/08 04:54:34;;;;;;;1.90;1.80;;;-1.00;98.20;;;;;;5084820;28;20464;-72
2023/02/08 04:57:03;;;;;;;1.80;1.70;;;-1.00;98.20;;;;;;5073443;28;20528;-73
2023/02/08 04:59:30;;;;;;;1.90;1.80;;;-1.10;98.20;;;;;;5089728;28;20885;-72
2023/02/08 05:01:57;;;;;;;1.90;1.80;;;-1.20;98.20;;;;;;5084600;27;20479;-73
2023/02/08 05:04:24;;;;;;;1.80;1.70;;;-1.20;98.20;;;;;;5097337;28;20457;-74
2023/02/08 05:06:51;;;;;;;2.53;2.33;;;-1.30;98.20;;;;;;5073999;28;20538;-72
2023/02/08 05:09:18;;;;;;;1.93;1.83;;;-1.40;98.20;;;;;;5081897;28;20540;-74
2023/02/08 05:11:45;;;;;;;1.80;1.70;;;-1.40;98.20;;;;;;5077740;28;20477;-72
2023/02/08 05:14:13;;;;;;;1.80;1.70;;;-1.50;98.20;;;;;;5091363;28;20456;-73
2023/02/08 05:16:40;;;;;;;1.93;1.83;;;-1.50;98.20;;;;;;5089168;28;20484;-73
2023/02/08 05:19:10;;;;;;;1.90;1.80;;;-1.50;98.20;;;;;;5097167;28;20885;-72
2023/02/08 05:21:37;;;;;;;1.90;1.80;;;-1.50;98.20;;;;;;5091146;28;20471;-70
2023/02/08 05:24:05;;;;;;;1.80;1.70;;;-1.50;98.20;;;;;;5098114;28;20733;-70
2023/02/08 05:26:32;;;;;;;1.80;1.70;;;-1.60;98.20;;;;;;5078824;28;21150;-71
2023/02/08 05:28:59;;;;;;;1.80;1.70;;;-1.60;98.20;;;;;;5095698;28;20461;-70
2023/02/08 05:31:28;;;;;;;1.90;1.80;;;-1.60;98.20;;;;;;5093780;27;20603;-74
2023/02/08 05:33:55;;;;;;;2.00;1.90;;;-1.60;98.20;;;;;;5098405;27;20907;-70
2023/02/08 05:36:23;;;;;;;1.93;1.83;;;-1.60;98.20;;;;;;5080536;28;20499;-71
2023/02/08 05:38:50;;;;;;;1.80;1.70;;;-1.60;98.20;;;;;;5085881;28;20457;-71
2023/02/08 05:41:17;;;;;;;1.90;1.80;;;-1.60;98.20;;;;;;5080065;28;20476;-71
2023/02/08 05:43:45;;;;;;;2.00;1.90;;;-1.60;98.20;;;;;;5097735;27;20620;-70
2023/02/08 05:46:12;;;;;;;1.90;1.80;;;-1.60;98.20;;;;;;5088737;28;20496;-71
2023/02/08 05:48:40;;;;;;;1.83;1.73;;;-1.60;98.20;;;;;;5096765;27;20703;-73
2023/02/08 05:51:07;;;;;;;1.90;1.80;;;-1.60;98.20;;;;;;5084126;28;20775;-71
2023/02/08 05:53:35;;;;;;;1.90;1.80;;;-1.70;98.20;;;;;;5107806;27;20972;-74
2023/02/08 05:56:02;;;;;;;1.90;1.80;;;-1.70;98.20;;;;;;5067111;28;20957;-73
2023/02/08 05:58:30;;;;;;;1.90;1.80;;;-1.70;98.20;;;;;;5091908;28;21034;-73
2023/02/08 06:00:57;;;;;;;1.90;1.80;;;-1.70;98.20;;;;;;5084159;28;20488;-72
2023/02/08 06:03:24;;;;;;;2.03;1.93;;;-1.70;98.20;;;;;;5091075;28;20496;-72
2023/02/08 06:05:53;;;;;;;1.90;1.80;;;-1.70;98.20;;;;;;5066037;28;20545;-72
2023/02/08 06:08:20;;;;;;;1.90;1.80;;;-1.60;98.20;;;;;;5088756;28;20887;-71
2023/02/08 06:10:48;;;;;;;1.80;1.70;;;-1.60;98.20;;;;;;5073796;28;20472;-72
2023/02/08 06:13:15;;;;;;;1.90;1.80;;;-1.50;98.20;;;;;;5047923;28;20489;-71
2023/02/08 06:15:43;;;;;;;1.90;1.80;;;-1.50;98.20;;;;;;5084100;28;20584;-71
2023/02/08 06:18:10;;;;;;;1.80;1.70;;;-1.50;98.20;;;;;;5067701;28;20481;-72
2023/02/08 06:20:38;;;;;;;1.90;1.80;;;-1.50;98.20;;;;;;5075289;28;20680;-73
2023/02/08 06:23:07;;;;;;;1.90;1.80;;;-1.50;98.20;;;;;;5078820;28;20476;-72
2023/02/08 06:25:34;;;;;;;1.90;1.80;;;-1.50;98.20;;;;;;5078194;28;20962;-73
2023/02/08 06:28:03;;;;;;;1.90;1.80;;;-1.50;98.20;;;;;;5078335;28;20484;-72
2023/02/08 06:30:30;;;;;;;2.00;1.90;;;-1.50;98.20;;;;;;5077901;28;20868;-74
2023/02/08 06:32:58;;;;;;;1.80;1.70;;;-1.50;98.20;;;;;;5081026;28;20464;-72
2023/02/08 06:35:25;;;;;;;1.90;1.80;;;-1.50;98.20;;;;;;5078747;28;20475;-72
2023/02/08 06:37:53;;;;;;;1.90;1.80;;;-1.50;98.20;;;;;;5079609;28;20982;-72
2023/02/08 06:40:21;;;;;;;1.83;1.73;;;-1.50;98.20;;;;;;5073936;28;20469;-74
2023/02/08 06:42:49;;;;;;;1.80;1.70;;;-1.50;98.20;;;;;;5088381;28;20533;-73
2023/02/08 06:45:16;;;;;;;1.90;1.80;;;-1.50;98.20;;;;;;5076353;28;20537;-73
2023/02/08 06:47:43;;;;;;;1.90;1.80;;;-1.50;98.20;;;;;;5083421;28;20576;-75
2023/02/08 06:50:11;;;;;;;1.87;1.77;;;-1.50;98.20;;;;;;5089060;28;20754;-72
2023/02/08 06:52:41;;;;;;;1.80;1.70;;;-1.50;98.20;;;;;;5089442;28;20525;-72
2023/02/08 06:55:08;;;;;;;2.13;2.03;;;-1.60;98.20;;;;;;5082204;28;20490;-74
2023/02/08 06:57:37;;;;;;;1.90;1.80;;;-1.60;98.20;;;;;;5078983;28;21012;-71
2023/02/08 07:00:05;;;;;;;1.80;1.70;;;-1.60;98.20;;;;;;5090338;28;20469;-72
2023/02/08 07:02:33;;;;;;;1.90;1.80;;;-1.70;98.20;;;;;;5081600;28;20555;-71
2023/02/08 07:05:00;;;;;;;1.90;1.80;;;-1.70;98.20;;;;;;5093196;28;20543;-71
2023/02/08 07:07:28;;;;;;;1.80;1.70;;;-1.70;98.20;;;;;;5080596;28;20500;-71
2023/02/08 07:09:55;;;;;;;1.80;1.70;;;-1.80;98.20;;;;;;5090124;28;20457;-73
2023/02/08 07:12:22;;;;;;;1.80;1.70;;;-1.80;98.20;;;;;;5079209;28;20484;-70
2023/02/08 07:14:51;;;;;;;1.90;1.80;;;-1.90;98.20;;;;;;5090113;28;20464;-72
2023/02/08 07:17:18;;;;;;;1.80;1.70;;;-1.90;98.20;;;;;;5078454;28;21032;-73
2023/02/08 07:19:45;;;;;;;1.80;1.70;;;-1.90;98.20;;;;;;5094103;28;20539;-70
2023/02/08 07:22:12;;;;;;;1.80;1.70;;;-1.90;98.20;;;;;;5076446;28;20828;-70
2023/02/08 07:24:41;;;;;;;1.90;1.80;;;-2.00;98.20;;;;;;5093750;28;20456;-70
2023/02/08 07:27:11;;;;;;;1.90;1.80;;;-2.00;98.20;;;;;;5075788;28;20476;-70
2023/02/08 07:29:39;;;;;;;1.80;1.70;;;-2.00;98.20;;;;;;5088498;27;20464;-72
2023/02/08 07:32:08;;;;;;;4.00;3.80;;;-2.00;98.20;;;;;;5087055;28;20757;-72
2023/02/08 07:34:39;;;;;;;1.90;1.80;;;-2.00;98.20;;;;;;5093116;28;20463;-71
2023/02/08 07:37:07;;;;;;;2.00;1.90;;;-2.00;98.20;;;;;;5086575;28;20556;-72
2023/02/08 07:39:34;;;;;;;1.80;1.70;;;-2.00;98.20;;;;;;5094239;28;20463;-71
2023/02/08 07:42:01;;;;;;;1.90;1.80;;;-2.00;98.20;;;;;;5077632;28;20509;-71
2023/02/08 07:44:29;;;;;;;1.80;1.70;;;-2.00;98.20;;;;;;5088780;28;20879;-71
2023/02/08 07:46:56;;;;;;;1.90;1.80;;;-1.90;98.20;;;;;;5068073;28;20514;-71
2023/02/08 07:49:24;;;;;;;1.93;1.83;;;-1.80;98.20;;;;;;5086873;28;20453;-71
2023/02/08 07:51:51;;;;;;;2.00;1.90;;;-1.60;98.20;;;;;;5077925;28;20575;-71
2023/02/08 07:54:18;;;;;;;1.80;1.70;;;-1.50;98.20;;;;;;5094734;28;21031;-71
2023/02/08 07:56:45;;;;;;;1.80;1.70;;;-1.30;98.20;;;;;;5075637;28;20476;-71
2023/02/08 07:59:13;;;;;;;1.80;1.70;;;-1.20;98.20;;;;;;5087676;28;20948;-70
2023/02/08 08:01:40;;;;;;;1.80;1.70;;;-0.90;98.20;;;;;;5072030;28;20564;-70
2023/02/08 08:04:08;;;;;;;1.70;1.60;;;-0.80;98.20;;;;;;5085700;28;21020;-70
2023/02/08 08:06:36;;;;;;;1.80;1.70;;;-0.60;98.20;;;;;;5074783;28;20487;-71
2023/02/08 08:09:04;;;;;;;1.80;1.70;;;-0.40;98.20;;;;;;5077564;28;21613;-70
2023/02/08 08:11:31;;;;;;;1.90;1.80;;;-0.20;98.20;;;;;;5066955;28;20472;-70
2023/02/08 08:13:59;;;;;;;1.77;1.67;;;0.00;98.20;;;;;;5067802;28;20496;-70
2023/02/08 08:16:26;;;;;;;1.70;1.60;;;0.20;98.20;;;;;;5063347;28;20480;-71
2023/02/08 08:18:53;;;;;;;1.80;1.70;;;0.30;98.20;;;;;;5083958;28;21039;-71
2023/02/08 08:21:20;;;;;;;1.70;1.60;;;0.50;98.20;;;;;;5074761;28;20468;-70
2023/02/08 08:23:49;;;;;;;1.73;1.63;;;0.70;98.20;;;;;;5085053;28;21120;-70
2023/02/08 08:26:19;;;;;;;1.73;1.63;;;0.90;98.20;;;;;;5074929;28;21149;-70
2023/02/08 08:28:46;;;;;;;1.70;1.60;;;1.00;98.20;;;;;;5088711;28;21263;-70
2023/02/08 08:31:15;;;;;;;1.70;1.60;;;1.20;98.20;;;;;;5071165;28;20754;-70
2023/02/08 08:33:42;;;;;;;1.70;1.60;;;1.40;98.20;;;;;;5081404;28;20488;-72
2023/02/08 08:36:10;;;;;;;1.70;1.60;;;1.50;98.20;;;;;;5061778;28;20481;-70
2023/02/08 08:38:39;;;;;;;1.70;1.50;;;1.70;98.20;;;;;;5090030;28;20840;-71
2023/02/08 08:41:13;;;;;;;1.70;1.60;;;1.90;98.20;;;;;;5071114;28;20470;-71
2023/02/08 08:43:40;;;;;;;1.70;1.60;;;2.00;97.20;;;;;;5089329;28;20479;-70
2023/02/08 08:46:08;;;;;;;1.70;1.50;;;2.10;95.70;;;;;;5077854;28;20970;-70
2023/02/08 08:48:35;;;;;;;1.70;1.60;;;2.30;96.20;;;;;;5081646;28;20546;-71
2023/02/08 08:51:02;;;;;;;1.63;1.50;;;2.40;95.50;;;;;;5068062;28;20465;-70
2023/02/08 08:53:30;;;;;;;1.70;1.50;;;2.40;95.30;;;;;;5075026;28;20484;-70
2023/02/08 08:55:56;;;;;;;1.63;1.50;;;2.50;94.90;;;;;;5070312;28;20467;-71
2023/02/08 08:58:25;;;;;;;1.67;1.50;;;2.60;93.40;;;;;;5074072;28;20487;-70
2023/02/08 09:00:52;;;;;;;1.67;1.40;;;2.70;92.90;;;;;;5069865;28;21027;-71
2023/02/08 09:03:19;;;;;;;1.60;1.40;;;2.70;93.80;;;;;;5068734;28;20480;-70
2023/02/08 09:05:47;;;;;;;1.70;1.40;;;2.80;92.30;;;;;;5085018;28;20464;-71
2023/02/08 09:08:14;;;;;;;1.67;1.40;;;3.00;92.30;;;;;;5092930;28;20464;-71
2023/02/08 09:10:42;;;;;;;1.70;1.60;;;3.10;91.90;;;;;;5082933;28;20548;-70
2023/02/08 09:13:09;;;;;;;1.70;1.57;;;3.20;89.70;;;;;;5091941;28;20479;-70
2023/02/08 09:15:41;;;;;;;1.67;1.50;;;3.30;90.10;;;;;;5089586;28;20468;-70
2023/02/08 09:18:08;;;;;;;3.23;2.40;;;3.40;89.50;;;;;;5057712;28;20515;-72
2023/02/08 09:20:38;;;;;;;1.70;1.60;;;3.50;89.10;;;;;;5091213;28;21114;-71
2023/02/08 09:23:11;;;;;;;1.60;1.37;;;3.50;86.60;;;;;;5087429;28;20479;-69
2023/02/08 09:25:39;;;;;;;1.67;1.40;;;3.60;86.20;;;;;;5083542;28;20469;-70
2023/02/08 09:28:06;;;;;;;1.80;1.70;;;3.60;87.20;;;;;;5053900;28;20481;-70
2023/02/08 09:30:47;;;;;;;1.70;1.40;;;3.70;86.80;;;;;;5086844;28;20460;-71
2023/02/08 09:33:18;;;;;;;4.03;3.67;;;3.70;86.70;;;;;;5058796;28;20472;-71
2023/02/08 09:35:45;;;;;;;1.70;1.40;;;3.80;85.80;;;;;;5100463;28;20459;-71
2023/02/08 09:38:20;;;;;;;1.70;1.60;;;3.90;85.20;;;;;;5062624;28;20479;-70
2023/02/08 09:40:56;;;;;;;1.70;1.40;;;3.90;84.40;;;;;;5089059;22;20472;-70
2023/02/08 09:43:36;;;;;;;1.67;1.50;;;4.00;85.30;;;;;;5072777;28;20508;-71
2023/02/08 09:46:09;;;;;;;1.60;1.40;;;4.10;84.60;;;;;;5057958;28;20514;-70
2023/02/08 09:48:38;;;;;;;1.60;1.37;;;4.20;84.40;;;;;;5067646;28;20557;-71
2023/02/08 09:51:12;;;;;;;1.70;1.40;;;4.30;85.00;;;;;;5057602;28;20457;-71
2023/02/08 09:53:46;;;;;;;1.60;1.30;;;4.50;84.60;;;;;;5063800;28;20490;-73
2023/02/08 09:56:19;;;;;;;1.67;1.40;;;4.70;83.00;;;;;;5050947;28;20903;-72
2023/02/08 09:58:50;;;;;;;14.03;13.13;;;4.90;83.40;;;;;;5065365;28;20463;-71
2023/02/08 10:01:23;;;;;;;1.70;1.50;;;5.00;82.00;;;;;;5047026;28;20474;-71
2023/02/08 10:03:53;;;;;;;1.63;1.40;;;5.00;80.50;;;;;;5055483;28;20477;-71
2023/02/08 10:06:21;;;;;;;1.70;1.40;;;5.00;81.10;;;;;;5055851;28;20483;-72
2023/02/08 10:08:51;;;;;;;1.67;1.40;;;5.10;80.20;;;;;;5078444;28;20516;-71
2023/02/08 10:11:43;;;;;;;1.70;1.40;;;5.10;79.90;;;;;;5063741;28;21052;-71
2023/02/08 10:14:29;;;;;;;2.87;2.67;;;5.10;78.30;;;;;;5075449;28;20993;-72
2023/02/08 10:17:09;;;;;;;3.30;3.10;;;5.10;77.40;;;;;;5070756;28;20584;-72
2023/02/08 10:19:50;;;;;;;1.70;1.50;;;5.20;77.90;;;;;;5073295;28;20458;-71
2023/02/08 10:22:28;;;;;;;5.83;4.40;;;5.20;76.50;;;;;;5046251;28;20674;-70
2023/02/08 10:25:20;;;;;;;1.60;1.30;;;5.30;75.80;;;;;;5057744;28;20461;-71
2023/02/08 10:27:57;;;;;;;1.70;1.33;;;5.40;76.20;;;;;;5078371;28;20577;-71
2023/02/08 10:30:41;;;;;;;1.60;1.30;;;5.50;75.20;;;;;;5068688;28;20464;-71
2023/02/08 10:33:16;;;;;;;1.70;1.50;;;5.60;75.30;;;;;;5079654;28;20560;-70
2023/02/08 10:35:48;;;;;;;1.60;1.20;;;5.80;76.10;;;;;;5069055;28;20527;-70
2023/02/08 10:38:25;;;;;;;1.67;1.30;;;6.00;75.90;;;;;;5059306;28;20547;-71
2023/02/08 10:40:58;;;;;;;1.70;1.40;;;6.00;73.00;;;;;;5078128;28;20593;-71
2023/02/08 10:43:36;;;;;;;1.60;1.20;;;6.00;71.70;;;;;;5091154;27;21126;-71
2023/02/08 10:46:12;;;;;;;1.60;1.40;;;6.00;71.50;;;;;;5086893;28;20492;-71
2023/02/08 10:48:51;;;;;;;1.60;1.40;;;6.00;71.20;;;;;;5102649;28;20451;-72
2023/02/08 10:51:19;;;;;;;1.70;1.40;;;6.20;72.60;;;;;;5075830;28;20490;-71
2023/02/08 10:53:48;;;;;;;1.60;1.30;;;6.30;71.30;;;;;;5090786;28;20495;-72
2023/02/08 10:56:33;;;;;;;1.70;1.50;;;6.40;72.30;;;;;;5085668;28;20473;-71
2023/02/08 10:59:06;;;;;;;1.70;1.40;;;6.50;71.40;;;;;;5087014;28;20467;-72
2023/02/08 11:01:34;;;;;;;1.70;1.50;;;6.60;70.90;;;;;;5071073;28;21043;-71
2023/02/08 11:04:05;;;;;;;1.70;1.57;;;6.70;69.80;;;;;;5093634;28;20491;-71
2023/02/08 11:06:33;;;;;;;2.40;2.20;;;6.80;70.60;;;;;;5076727;28;20567;-71
2023/02/08 11:09:01;;;;;;;4.90;4.60;;;7.10;70.50;;;;;;5094319;28;20973;-71
2023/02/08 11:11:35;;;;;;;1.70;1.60;;;7.10;69.10;;;;;;5072852;28;20460;-71
2023/02/08 11:14:09;;;;;;;1.60;1.30;;;7.20;68.30;;;;;;5104400;28;20494;-71
2023/02/08 11:16:38;;;;;;;2.43;2.23;;;7.20;68.30;;;;;;5078712;28;20484;-71
2023/02/08 11:19:08;;;;;;;1.60;1.30;;;7.30;68.20;;;;;;5086798;28;21077;-71
2023/02/08 11:21:37;;;;;;;1.60;1.30;;;7.40;67.10;;;;;;5076454;28;20473;-71
2023/02/08 11:24:22;;;;;;;1.60;1.27;;;7.50;66.80;;;;;;5095029;28;20483;-72
2023/02/08 11:26:49;;;;;;;1.60;1.30;;;7.50;65.20;;;;;;5082709;27;20576;-72
2023/02/08 11:29:19;;;;;;;1.60;1.20;;;7.50;64.10;;;;;;5106928;27;20471;-70
2023/02/08 11:31:59;;;;;;;1.70;1.60;;;7.50;64.50;;;;;;5086386;28;20739;-72
2023/02/08 11:34:29;;;;;;;1.57;1.20;;;7.50;64.80;;;;;;5099145;28;20471;-71
2023/02/08 11:36:58;;;;;;;1.57;1.20;;;7.60;64.20;;;;;;5081193;28;20570;-71
2023/02/08 11:39:28;;;;;;;1.77;1.67;;;7.70;65.30;;;;;;5105499;28;20456;-71
2023/02/08 11:41:59;;;;;;;1.60;1.27;;;7.90;65.30;;;;;;5085267;28;20478;-72
2023/02/08 11:44:30;;;;;;;1.60;1.33;;;8.00;65.20;;;;;;5098025;28;20493;-72
2023/02/08 11:47:01;;;;;;;1.60;1.33;;;8.10;64.00;;;;;;5076115;28;20563;-71
2023/02/08 11:49:36;;;;;;;1.60;1.20;;;8.20;64.90;;;;;;5080833;28;20464;-71
2023/02/08 11:52:05;;;;;;;1.60;1.20;;;8.40;64.50;;;;;;5082487;28;20480;-71
2023/02/08 11:54:38;;;;;;;1.60;1.40;;;8.50;64.40;;;;;;5087732;28;20485;-71
2023/02/08 11:57:13;;;;;;;1.60;1.20;;;8.70;65.70;;;;;;5086466;28;20581;-71
2023/02/08 11:59:40;;;;;;;1.60;1.30;;;8.80;64.70;;;;;;5104019;28;20456;-71
2023/02/08 12:02:28;;;;;;;1.60;1.20;;;8.90;63.40;;;;;;5088948;28;20507;-71
2023/02/08 12:04:58;;;;;;;1.57;1.20;;;8.80;61.90;;;;;;5096154;28;20546;-71
2023/02/08 12:07:33;;;;;;;1.57;1.17;;;9.00;62.40;;;;;;5083715;28;21067;-71
2023/02/08 12:10:36;;;;;;;1.60;1.20;;;9.10;62.50;;;;;;5096899;28;20457;-70
2023/02/08 12:13:37;;;;;;;1.60;1.20;;;9.00;61.00;;;;;;5086247;28;21291;-71
2023/02/08 12:16:14;;;;;;;2.30;2.10;;;8.90;61.70;;;;;;5075723;28;20479;-71
2023/02/08 12:19:03;;;;;;;1.53;1.17;;;9.00;62.00;;;;;;5085079;28;20563;-70
2023/02/08 12:21:39;;;;;;;1.60;1.30;;;9.20;61.30;;;;;;5076295;28;20475;-70
2023/02/08 12:24:14;;;;;;;1.60;1.20;;;9.20;61.80;;;;;;5092610;28;20506;-70
2023/02/08 12:27:00;;;;;;;1.60;1.20;;;9.20;60.40;;;;;;5082194;28;20474;-71
2023/02/08 12:29:43;;;;;;;1.60;1.30;;;9.00;60.00;;;;;;5096322;28;20459;-72
2023/02/08 12:32:45;;;;;;;1.57;1.20;;;8.90;60.20;;;;;;5083631;28;20972;-73
2023/02/08 12:35:33;;;;;;;1.70;1.50;;;8.80;59.60;;;;;;5062204;28;20487;-71
2023/02/08 12:40:59;;;;;;;1.60;1.20;;;8.60;60.80;;;;;;5092215;28;20470;-70
2023/02/08 12:43:44;;;;;;;1.53;1.13;;;8.80;60.90;;;;;;5082224;28;20549;-71
2023/02/08 12:46:27;;;;;;;1.60;1.20;;;8.60;61.20;;;;;;5075156;28;20650;-70
2023/02/08 12:49:13;;;;;;;1.53;1.10;;;8.40;60.10;;;;;;5073920;28;20496;-70
2023/02/08 12:51:49;;;;;;;1.50;1.10;;;8.40;60.90;;;;;;5069364;28;20556;-72
2023/02/08 12:54:29;;;;;;;1.60;1.20;;;8.50;61.10;;;;;;5087550;28;20479;-71
2023/02/08 12:56:58;;;;;;;1.60;1.47;;;8.50;61.30;;;;;;5078590;28;20485;-71
2023/02/08 12:59:30;;;;;;;1.53;1.20;;;8.60;60.30;;;;;;5072066;28;20463;-71
2023/02/08 13:02:03;;;;;;;1.70;1.50;;;8.60;61.20;;;;;;5077815;28;20476;-71
2023/02/08 13:04:37;;;;;;;1.60;1.20;;;8.80;60.70;;;;;;5081685;28;20463;-71
2023/02/08 13:07:11;;;;;;;1.50;1.20;;;8.80;60.00;;;;;;5086374;28;21328;-71
2023/02/08 13:09:48;;;;;;;1.57;1.20;;;9.00;61.30;;;;;;5085687;28;20465;-71
2023/02/08 13:12:20;;;;;;;2.17;1.97;;;9.10;60.10;;;;;;5072159;28;20480;-71
2023/02/08 13:14:52;;;;;;;1.57;1.20;;;9.20;60.10;;;;;;5093818;28;20556;-71
2023/02/08 13:17:25;;;;;;;2.47;2.27;;;9.20;59.50;;;;;;5071739;28;20571;-72